createdAt,value
2022-07-29T00:00:24.641Z,98086.75
2022-07-29T00:01:42.251Z,98090.00
2022-07-29T00:02:50.292Z,98089.36
2022-07-29T00:03:58.984Z,98086.23
2022-07-29T00:05:09.869Z,98088.81
2022-07-29T00:06:20.143Z,98085.95
2022-07-29T00:07:32.040Z,98082.17
2022-07-29T00:08:42.895Z,98086.80
2022-07-29T00:09:52.539Z,98091.47
2022-07-29T00:11:02.235Z,98084.13
2022-07-29T00:12:12.168Z,98086.09
2022-07-29T00:13:32.187Z,98085.33
2022-07-29T00:14:42.082Z,98088.64
2022-07-29T00:15:52.131Z,98090.33
2022-07-29T00:17:00.921Z,98086.55
2022-07-29T00:18:14.042Z,98088.46
2022-07-29T00:19:23.710Z,98089.04
2022-07-29T00:20:31.689Z,98095.09
2022-07-29T00:21:42.096Z,98090.70
2022-07-29T00:22:50.212Z,98092.23
2022-07-29T00:24:02.148Z,98095.52
2022-07-29T00:25:11.982Z,98092.66
2022-07-29T00:26:22.474Z,98091.17
2022-07-29T00:27:32.806Z,98091.36
2022-07-29T00:28:42.338Z,98089.77
2022-07-29T00:29:50.202Z,98092.46
2022-07-29T00:31:01.343Z,98094.33
2022-07-29T00:32:12.740Z,98092.80
2022-07-29T00:33:21.009Z,98090.63
2022-07-29T00:34:49.199Z,98091.91
2022-07-29T00:35:57.441Z,98093.39
2022-07-29T00:37:07.856Z,98090.38
2022-07-29T00:38:18.844Z,98090.71
2022-07-29T00:39:27.522Z,98084.66
2022-07-29T00:40:35.850Z,98085.02
2022-07-29T00:41:44.435Z,98083.95
2022-07-29T00:42:53.421Z,98079.45
2022-07-29T00:44:03.068Z,98083.73
2022-07-29T00:45:11.413Z,98084.40
2022-07-29T00:46:22.539Z,98080.32
2022-07-29T00:47:32.528Z,98080.14
2022-07-29T00:48:41.267Z,98080.59
2022-07-29T00:49:54.035Z,98083.48
2022-07-29T00:51:05.254Z,98080.92
2022-07-29T00:52:17.048Z,98082.91
2022-07-29T00:53:28.827Z,98086.11
2022-07-29T00:54:44.575Z,98086.27
2022-07-29T00:55:52.911Z,98087.08
2022-07-29T00:57:07.010Z,98084.95
2022-07-29T00:58:18.043Z,98085.53
2022-07-29T00:59:26.409Z,98086.28
2022-07-29T01:00:45.660Z,98084.76
2022-07-29T01:01:53.242Z,98081.00
2022-07-29T01:03:02.163Z,98084.02
2022-07-29T01:04:14.863Z,98083.12
2022-07-29T01:05:51.622Z,98080.77
2022-07-29T01:06:56.569Z,98072.70
2022-07-29T01:08:04.958Z,98083.39
2022-07-29T01:09:16.272Z,98087.04
2022-07-29T01:10:44.002Z,98085.10
2022-07-29T01:11:51.543Z,98090.61
2022-07-29T01:13:01.607Z,98087.73
2022-07-29T01:14:11.878Z,98089.34
2022-07-29T01:15:22.644Z,98089.21
2022-07-29T01:16:36.815Z,98086.60
2022-07-29T01:17:54.993Z,98086.64
2022-07-29T01:19:12.021Z,98086.13
2022-07-29T01:20:52.983Z,98084.85
2022-07-29T01:22:05.654Z,98086.86
2022-07-29T01:23:41.241Z,98091.61
2022-07-29T01:25:31.387Z,98093.45
2022-07-29T01:27:16.339Z,98093.78
2022-07-29T01:29:13.336Z,98098.21
2022-07-29T01:30:22.116Z,98104.59
2022-07-29T01:32:00.627Z,98103.87
2022-07-29T01:33:35.101Z,98104.56
2022-07-29T01:34:58.146Z,98100.39
2022-07-29T01:36:10.307Z,98108.42
2022-07-29T01:37:51.984Z,98107.35
2022-07-29T01:39:11.635Z,98107.25
2022-07-29T01:40:54.874Z,98108.83
2022-07-29T01:42:05.697Z,98111.77
2022-07-29T01:43:24.661Z,98113.58
2022-07-29T01:45:08.954Z,98111.23
2022-07-29T01:46:18.285Z,98110.75
2022-07-29T01:47:29.106Z,98110.89
2022-07-29T01:48:51.113Z,98107.83
2022-07-29T01:50:00.568Z,98105.63
2022-07-29T01:51:16.812Z,98110.79
2022-07-29T01:52:56.087Z,98110.52
2022-07-29T01:54:37.599Z,98111.64
2022-07-29T01:55:48.269Z,98113.89
2022-07-29T01:56:59.055Z,98115.00
2022-07-29T01:58:08.274Z,98121.36
2022-07-29T01:59:22.741Z,98117.88
2022-07-29T02:00:34.004Z,98117.72
2022-07-29T02:01:45.631Z,98120.00
2022-07-29T02:02:54.226Z,98120.55
2022-07-29T02:04:05.299Z,98128.27
2022-07-29T02:05:16.162Z,98129.95
2022-07-29T02:06:28.291Z,98130.30
2022-07-29T02:07:39.221Z,98128.64
2022-07-29T02:08:47.719Z,98133.10
2022-07-29T02:09:55.545Z,98135.17
2022-07-29T02:11:05.544Z,98140.36
2022-07-29T02:12:15.142Z,98137.70
2022-07-29T02:13:23.428Z,98141.32
2022-07-29T02:14:35.869Z,98140.25
2022-07-29T02:15:46.517Z,98139.83
2022-07-29T02:16:56.454Z,98142.90
2022-07-29T02:18:12.696Z,98141.34
2022-07-29T02:19:24.241Z,98144.07
2022-07-29T02:20:33.407Z,98146.17
2022-07-29T02:21:43.418Z,98152.30
2022-07-29T02:22:51.340Z,98152.42
2022-07-29T02:24:01.050Z,98154.45
2022-07-29T02:25:13.698Z,98153.57
2022-07-29T02:26:23.747Z,98155.27
2022-07-29T02:27:35.354Z,98157.76
2022-07-29T02:28:43.445Z,98155.11
2022-07-29T02:29:51.606Z,98153.16
2022-07-29T02:31:05.696Z,98157.04
2022-07-29T02:32:15.182Z,98156.20
2022-07-29T02:33:31.050Z,98159.45
2022-07-29T02:34:40.902Z,98161.27
2022-07-29T02:35:50.591Z,98160.72
2022-07-29T02:36:58.832Z,98163.34
2022-07-29T02:38:35.267Z,98164.92
2022-07-29T02:39:46.517Z,98166.82
2022-07-29T02:40:54.534Z,98174.80
2022-07-29T02:42:10.723Z,98171.87
2022-07-29T02:43:22.620Z,98177.52
2022-07-29T02:44:34.695Z,98175.58
2022-07-29T02:45:45.533Z,98179.34
2022-07-29T02:47:08.368Z,98181.48
2022-07-29T02:48:20.595Z,98180.96
2022-07-29T02:50:00.580Z,98181.45
2022-07-29T02:51:41.478Z,98182.89
2022-07-29T02:53:25.598Z,98185.08
2022-07-29T02:54:49.322Z,98194.57
2022-07-29T02:56:00.643Z,98197.60
2022-07-29T02:57:20.430Z,98206.36
2022-07-29T02:58:33.135Z,98207.02
2022-07-29T02:59:42.978Z,98209.10
2022-07-29T03:00:51.231Z,98205.95
2022-07-29T03:02:00.919Z,98208.25
2022-07-29T03:03:14.149Z,98212.27
2022-07-29T03:04:23.598Z,98211.75
2022-07-29T03:05:32.815Z,98215.41
2022-07-29T03:06:41.999Z,98217.85
2022-07-29T03:07:55.957Z,98217.88
2022-07-29T03:09:10.465Z,98219.79
2022-07-29T03:10:23.631Z,98226.21
2022-07-29T03:11:40.091Z,98229.78
2022-07-29T03:12:59.288Z,98236.33
2022-07-29T03:14:07.875Z,98240.27
2022-07-29T03:15:17.816Z,98241.56
2022-07-29T03:16:27.589Z,98242.08
2022-07-29T03:17:38.981Z,98242.34
2022-07-29T03:18:47.700Z,98246.25
2022-07-29T03:19:55.544Z,98248.36
2022-07-29T03:21:06.324Z,98246.95
2022-07-29T03:22:15.692Z,98247.62
2022-07-29T03:23:33.210Z,98253.09
2022-07-29T03:24:45.404Z,98252.81
2022-07-29T03:25:55.798Z,98258.01
2022-07-29T03:27:09.062Z,98258.02
2022-07-29T03:28:19.543Z,98255.82
2022-07-29T03:29:33.408Z,98260.23
2022-07-29T03:30:44.581Z,98256.77
2022-07-29T03:31:53.729Z,98256.27
2022-07-29T03:33:13.258Z,98258.97
2022-07-29T03:34:23.604Z,98257.17
2022-07-29T03:35:34.914Z,98257.08
2022-07-29T03:36:42.979Z,98256.58
2022-07-29T03:37:52.500Z,98255.81
2022-07-29T03:39:03.813Z,98256.98
2022-07-29T03:40:13.866Z,98259.58
2022-07-29T03:41:23.054Z,98255.66
2022-07-29T03:42:36.176Z,98256.05
2022-07-29T03:43:49.474Z,98256.50
2022-07-29T03:44:58.596Z,98257.33
2022-07-29T03:46:10.108Z,98263.28
2022-07-29T03:47:21.476Z,98263.39
2022-07-29T03:48:36.734Z,98269.23
2022-07-29T03:49:45.852Z,98271.05
2022-07-29T03:50:53.950Z,98276.06
2022-07-29T03:52:06.258Z,98283.16
2022-07-29T03:53:16.484Z,98283.95
2022-07-29T03:54:25.787Z,98288.27
2022-07-29T03:55:37.149Z,98291.27
2022-07-29T03:56:48.842Z,98292.65
2022-07-29T03:57:57.332Z,98297.60
2022-07-29T03:59:08.698Z,98300.69
2022-07-29T04:00:18.301Z,98303.89
2022-07-29T04:01:29.599Z,98301.07
2022-07-29T04:02:40.639Z,98301.19
2022-07-29T04:03:48.831Z,98300.52
2022-07-29T04:04:57.105Z,98298.77
2022-07-29T04:06:08.603Z,98296.84
2022-07-29T04:07:19.583Z,98290.29
2022-07-29T04:08:27.901Z,98291.67
2022-07-29T04:09:38.757Z,98290.89
2022-07-29T04:10:46.697Z,98294.92
2022-07-29T04:12:01.466Z,98297.02
2022-07-29T04:13:13.774Z,98304.49
2022-07-29T04:14:23.075Z,98315.91
2022-07-29T04:15:33.389Z,98320.92
2022-07-29T04:16:41.372Z,98323.18
2022-07-29T04:17:51.603Z,98324.17
2022-07-29T04:18:59.917Z,98325.77
2022-07-29T04:20:08.942Z,98326.80
2022-07-29T04:21:18.049Z,98329.05
2022-07-29T04:22:29.056Z,98325.81
2022-07-29T04:23:52.813Z,98329.50
2022-07-29T04:25:04.404Z,98330.81
2022-07-29T04:26:14.886Z,98333.07
2022-07-29T04:27:26.166Z,98331.15
2022-07-29T04:28:37.087Z,98329.50
2022-07-29T04:29:57.394Z,98331.97
2022-07-29T04:31:09.731Z,98334.11
2022-07-29T04:32:20.491Z,98332.13
2022-07-29T04:33:28.867Z,98334.59
2022-07-29T04:34:37.418Z,98331.67
2022-07-29T04:35:50.207Z,98328.69
2022-07-29T04:37:02.927Z,98332.82
2022-07-29T04:38:15.609Z,98333.42
2022-07-29T04:39:30.594Z,98330.50
2022-07-29T04:40:38.805Z,98330.66
2022-07-29T04:41:49.058Z,98327.19
2022-07-29T04:42:56.994Z,98329.48
2022-07-29T04:44:08.927Z,98332.73
2022-07-29T04:45:16.922Z,98332.11
2022-07-29T04:46:33.472Z,98332.66
2022-07-29T04:47:43.443Z,98337.75
2022-07-29T04:48:51.616Z,98339.41
2022-07-29T04:49:59.841Z,98343.70
2022-07-29T04:51:10.288Z,98342.09
2022-07-29T04:52:21.023Z,98345.83
2022-07-29T04:53:29.113Z,98349.65
2022-07-29T04:54:37.541Z,98353.05
2022-07-29T04:55:46.394Z,98353.08
2022-07-29T04:56:54.159Z,98353.58
2022-07-29T04:58:02.181Z,98356.80
2022-07-29T04:59:13.828Z,98353.83
2022-07-29T05:00:22.384Z,98353.88
2022-07-29T05:01:43.914Z,98352.21
2022-07-29T05:02:52.219Z,98349.02
2022-07-29T05:04:02.794Z,98350.80
2022-07-29T05:05:13.532Z,98351.68
2022-07-29T05:06:24.556Z,98350.85
2022-07-29T05:07:33.725Z,98353.87
2022-07-29T05:08:43.419Z,98355.88
2022-07-29T05:09:50.947Z,98355.05
2022-07-29T05:10:59.156Z,98357.67
2022-07-29T05:12:23.073Z,98353.55
2022-07-29T05:13:45.341Z,98352.83
2022-07-29T05:14:56.097Z,98354.04
2022-07-29T05:16:04.587Z,98358.52
2022-07-29T05:17:13.711Z,98359.95
2022-07-29T05:18:26.229Z,98361.30
2022-07-29T05:19:34.854Z,98365.63
2022-07-29T05:20:49.143Z,98365.63
2022-07-29T05:21:57.610Z,98361.95
2022-07-29T05:23:06.207Z,98364.57
2022-07-29T05:24:15.162Z,98363.13
2022-07-29T05:25:43.872Z,98365.38
2022-07-29T05:26:53.646Z,98364.70
2022-07-29T05:28:02.360Z,98364.50
2022-07-29T05:29:44.775Z,98366.23
2022-07-29T05:30:43.630Z,98368.27
2022-07-29T05:31:51.638Z,98370.57
2022-07-29T05:32:59.700Z,98374.72
2022-07-29T05:34:08.716Z,98379.70
2022-07-29T05:35:19.727Z,98375.61
2022-07-29T05:36:27.803Z,98375.58
2022-07-29T05:37:36.466Z,98375.57
2022-07-29T05:38:44.113Z,98375.10
2022-07-29T05:39:56.559Z,98373.15
2022-07-29T05:41:05.696Z,98374.66
2022-07-29T05:42:16.297Z,98374.20
2022-07-29T05:43:26.349Z,98371.49
2022-07-29T05:44:39.115Z,98368.06
2022-07-29T05:45:49.330Z,98369.14
2022-07-29T05:47:00.015Z,98363.79
2022-07-29T05:48:08.346Z,98361.73
2022-07-29T05:49:26.807Z,98363.89
2022-07-29T05:50:44.279Z,98365.27
2022-07-29T05:51:56.949Z,98372.09
2022-07-29T05:53:18.857Z,98376.56
2022-07-29T05:54:31.743Z,98377.59
2022-07-29T05:55:42.987Z,98377.30
2022-07-29T05:56:55.332Z,98377.91
2022-07-29T05:58:03.835Z,98379.86
2022-07-29T05:59:18.182Z,98379.22
2022-07-29T06:00:27.943Z,98378.23
2022-07-29T06:01:42.192Z,98377.48
2022-07-29T06:02:50.186Z,98381.65
2022-07-29T06:03:58.394Z,98386.14
2022-07-29T06:05:06.455Z,98386.65
2022-07-29T06:06:23.629Z,98388.36
2022-07-29T06:07:35.364Z,98393.37
2022-07-29T06:08:45.808Z,98396.80
2022-07-29T06:09:54.275Z,98396.60
2022-07-29T06:11:04.292Z,98394.75
2022-07-29T06:12:13.294Z,98393.89
2022-07-29T06:13:23.514Z,98390.69
2022-07-29T06:14:34.485Z,98387.24
2022-07-29T06:15:45.109Z,98385.17
2022-07-29T06:16:53.484Z,98390.67
2022-07-29T06:18:02.486Z,98393.30
2022-07-29T06:19:14.068Z,98393.64
2022-07-29T06:20:24.330Z,98397.77
2022-07-29T06:21:42.157Z,98396.95
2022-07-29T06:22:50.218Z,98398.48
2022-07-29T06:23:59.373Z,98399.87
2022-07-29T06:25:10.372Z,98395.21
2022-07-29T06:26:30.741Z,98396.60
2022-07-29T06:27:41.276Z,98394.04
2022-07-29T06:28:49.885Z,98395.85
2022-07-29T06:29:59.246Z,98394.77
2022-07-29T06:31:10.284Z,98395.55
2022-07-29T06:32:19.307Z,98392.25
2022-07-29T06:33:33.315Z,98392.26
2022-07-29T06:34:42.242Z,98394.20
2022-07-29T06:35:53.648Z,98395.66
2022-07-29T06:37:08.562Z,98395.77
2022-07-29T06:38:25.183Z,98397.60
2022-07-29T06:39:41.760Z,98401.44
2022-07-29T06:41:06.240Z,98398.45
2022-07-29T06:42:16.442Z,98399.43
2022-07-29T06:43:24.680Z,98403.15
2022-07-29T06:44:36.807Z,98402.54
2022-07-29T06:45:46.501Z,98403.70
2022-07-29T06:46:56.052Z,98401.93
2022-07-29T06:48:04.362Z,98400.41
2022-07-29T06:49:15.972Z,98400.30
2022-07-29T06:50:26.336Z,98401.41
2022-07-29T06:51:37.006Z,98402.13
2022-07-29T06:52:46.921Z,98402.02
2022-07-29T06:53:59.632Z,98402.59
2022-07-29T06:55:12.107Z,98407.10
2022-07-29T06:56:38.299Z,98404.23
2022-07-29T06:57:49.568Z,98404.33
2022-07-29T06:59:01.574Z,98407.61
2022-07-29T07:00:14.448Z,98407.48
2022-07-29T07:01:24.502Z,98411.95
2022-07-29T07:02:34.113Z,98412.38
2022-07-29T07:03:46.142Z,98415.48
2022-07-29T07:04:54.319Z,98412.90
2022-07-29T07:06:02.883Z,98410.73
2022-07-29T07:07:13.446Z,98409.30
2022-07-29T07:08:23.414Z,98407.81
2022-07-29T07:09:40.340Z,98404.77
2022-07-29T07:10:50.869Z,98404.38
2022-07-29T07:11:58.892Z,98404.41
2022-07-29T07:13:07.364Z,98404.52
2022-07-29T07:14:16.558Z,98402.77
2022-07-29T07:15:38.531Z,98402.44
2022-07-29T07:16:50.268Z,98401.70
2022-07-29T07:18:01.179Z,98402.41
2022-07-29T07:19:09.203Z,98404.00
2022-07-29T07:20:17.193Z,98403.78
2022-07-29T07:21:27.278Z,98404.77
2022-07-29T07:22:41.806Z,98403.68
2022-07-29T07:23:53.908Z,98404.94
2022-07-29T07:25:02.661Z,98401.09
2022-07-29T07:26:14.187Z,98399.13
2022-07-29T07:27:23.292Z,98401.04
2022-07-29T07:28:35.481Z,98399.50
2022-07-29T07:29:44.825Z,98404.12
2022-07-29T07:30:53.425Z,98402.70
2022-07-29T07:32:01.538Z,98404.23
2022-07-29T07:33:12.172Z,98406.56
2022-07-29T07:34:28.274Z,98402.84
2022-07-29T07:35:38.772Z,98401.13
2022-07-29T07:36:48.705Z,98396.61
2022-07-29T07:37:59.528Z,98393.14
2022-07-29T07:39:08.287Z,98389.83
2022-07-29T07:40:19.306Z,98387.86
2022-07-29T07:41:27.765Z,98387.78
2022-07-29T07:42:43.041Z,98389.46
2022-07-29T07:43:56.554Z,98388.20
2022-07-29T07:45:16.108Z,98387.34
2022-07-29T07:46:30.083Z,98387.70
2022-07-29T07:47:41.813Z,98385.42
2022-07-29T07:48:50.403Z,98386.64
2022-07-29T07:49:58.332Z,98386.28
2022-07-29T07:51:07.649Z,98387.19
2022-07-29T07:52:19.977Z,98387.61
2022-07-29T07:53:28.170Z,98394.38
2022-07-29T07:54:37.305Z,98397.91
2022-07-29T07:56:09.298Z,98401.66
2022-07-29T07:57:19.877Z,98411.81
2022-07-29T07:58:28.227Z,98424.17
2022-07-29T07:59:37.115Z,98429.64
2022-07-29T08:00:47.043Z,98436.94
2022-07-29T08:01:56.880Z,98440.51
2022-07-29T08:03:05.521Z,98442.36
2022-07-29T08:04:29.144Z,98435.79
2022-07-29T08:05:39.448Z,98431.45
2022-07-29T08:06:52.914Z,98426.07
2022-07-29T08:08:00.736Z,98420.21
2022-07-29T08:09:28.275Z,98413.64
2022-07-29T08:10:56.116Z,98413.64
2022-07-29T08:12:08.600Z,98417.93
2022-07-29T08:13:17.269Z,98429.98
2022-07-29T08:14:27.223Z,98436.64
2022-07-29T08:15:37.577Z,98443.02
2022-07-29T08:16:49.864Z,98448.06
2022-07-29T08:17:57.934Z,98447.88
2022-07-29T08:19:06.063Z,98437.63
2022-07-29T08:20:16.913Z,98424.94
2022-07-29T08:21:27.145Z,98414.45
2022-07-29T08:22:37.022Z,98401.47
2022-07-29T08:23:56.153Z,98380.67
2022-07-29T08:25:08.128Z,98371.44
2022-07-29T08:26:17.332Z,98374.43
2022-07-29T08:27:44.431Z,98382.27
2022-07-29T08:28:54.080Z,98395.57
2022-07-29T08:30:02.231Z,98404.77
2022-07-29T08:31:10.156Z,98409.11
2022-07-29T08:32:37.166Z,98408.98
2022-07-29T08:33:49.832Z,98411.72
2022-07-29T08:34:58.098Z,98407.23
2022-07-29T08:36:06.166Z,98410.02
2022-07-29T08:37:15.494Z,98410.38
2022-07-29T08:38:25.757Z,98409.11
2022-07-29T08:39:34.970Z,98409.08
2022-07-29T08:40:44.644Z,98404.29
2022-07-29T08:41:57.505Z,98402.13
2022-07-29T08:43:14.211Z,98400.49
2022-07-29T08:44:30.483Z,98398.71
2022-07-29T08:45:54.419Z,98397.33
2022-07-29T08:47:02.479Z,98400.10
2022-07-29T08:48:15.788Z,98401.77
2022-07-29T08:49:25.346Z,98402.94
2022-07-29T08:50:34.828Z,98404.27
2022-07-29T08:51:49.596Z,98403.91
2022-07-29T08:53:00.412Z,98401.27
2022-07-29T08:54:09.857Z,98398.80
2022-07-29T08:55:21.517Z,98395.27
2022-07-29T08:56:31.681Z,98394.11
2022-07-29T08:57:54.126Z,98395.39
2022-07-29T08:59:08.737Z,98394.70
2022-07-29T09:00:21.696Z,98395.48
2022-07-29T09:01:36.090Z,98394.92
2022-07-29T09:02:54.604Z,98394.57
2022-07-29T09:04:03.727Z,98392.60
2022-07-29T09:05:14.541Z,98394.77
2022-07-29T09:06:24.379Z,98388.95
2022-07-29T09:07:35.050Z,98386.24
2022-07-29T09:08:44.767Z,98382.70
2022-07-29T09:09:55.689Z,98381.14
2022-07-29T09:11:07.709Z,98374.45
2022-07-29T09:12:28.643Z,98365.57
2022-07-29T09:13:38.299Z,98360.30
2022-07-29T09:14:49.622Z,98358.83
2022-07-29T09:16:01.769Z,98356.27
2022-07-29T09:17:11.872Z,98357.64
2022-07-29T09:18:49.436Z,98356.85
2022-07-29T09:19:58.080Z,98359.25
2022-07-29T09:21:26.014Z,98359.95
2022-07-29T09:22:40.065Z,98368.86
2022-07-29T09:24:09.639Z,98376.73
2022-07-29T09:25:35.412Z,98379.27
2022-07-29T09:26:46.011Z,98380.86
2022-07-29T09:27:56.225Z,98374.31
2022-07-29T09:29:12.552Z,98368.86
2022-07-29T09:30:28.347Z,98361.11
2022-07-29T09:31:42.757Z,98354.13
2022-07-29T09:33:03.845Z,98349.41
2022-07-29T09:34:15.601Z,98351.73
2022-07-29T09:35:27.801Z,98355.45
2022-07-29T09:36:48.060Z,98360.92
2022-07-29T09:37:57.450Z,98370.67
2022-07-29T09:39:07.352Z,98377.77
2022-07-29T09:40:23.285Z,98379.59
2022-07-29T09:41:33.925Z,98377.91
2022-07-29T09:42:43.819Z,98373.92
2022-07-29T09:44:02.186Z,98369.89
2022-07-29T09:45:10.397Z,98365.45
2022-07-29T09:46:20.039Z,98362.27
2022-07-29T09:47:44.475Z,98363.95
2022-07-29T09:49:16.236Z,98364.73
2022-07-29T09:50:28.643Z,98366.11
2022-07-29T09:51:38.599Z,98365.98
2022-07-29T09:52:58.637Z,98366.13
2022-07-29T09:54:31.176Z,98369.51
2022-07-29T09:55:54.348Z,98374.29
2022-07-29T09:57:02.580Z,98375.17
2022-07-29T09:58:25.370Z,98375.92
2022-07-29T09:59:35.396Z,98373.42
2022-07-29T10:00:47.225Z,98369.86
2022-07-29T10:01:57.526Z,98371.86
2022-07-29T10:03:06.002Z,98369.42
2022-07-29T10:04:14.319Z,98364.00
2022-07-29T10:05:36.512Z,98361.96
2022-07-29T10:07:08.324Z,98359.55
2022-07-29T10:08:16.686Z,98357.58
2022-07-29T10:09:25.099Z,98356.05
2022-07-29T10:10:42.074Z,98354.38
2022-07-29T10:12:07.675Z,98354.86
2022-07-29T10:13:19.629Z,98354.65
2022-07-29T10:14:27.996Z,98351.74
2022-07-29T10:15:45.174Z,98350.89
2022-07-29T10:16:54.580Z,98348.46
2022-07-29T10:18:02.704Z,98346.33
2022-07-29T10:19:11.018Z,98344.66
2022-07-29T10:20:21.854Z,98345.77
2022-07-29T10:21:35.845Z,98345.91
2022-07-29T10:22:54.173Z,98345.84
2022-07-29T10:24:03.234Z,98349.52
2022-07-29T10:25:13.005Z,98350.77
2022-07-29T10:26:24.682Z,98353.98
2022-07-29T10:27:35.087Z,98354.50
2022-07-29T10:28:43.308Z,98355.59
2022-07-29T10:29:55.780Z,98354.17
2022-07-29T10:31:06.458Z,98355.35
2022-07-29T10:32:31.918Z,98356.91
2022-07-29T10:34:06.111Z,98356.85
2022-07-29T10:35:52.698Z,98352.68
2022-07-29T10:37:21.520Z,98350.20
2022-07-29T10:38:48.149Z,98351.89
2022-07-29T10:40:37.655Z,98353.73
2022-07-29T10:42:29.629Z,98353.20
2022-07-29T10:43:51.492Z,98354.54
2022-07-29T10:45:00.426Z,98356.36
2022-07-29T10:46:08.689Z,98350.93
2022-07-29T10:47:28.520Z,98349.15
2022-07-29T10:48:37.856Z,98347.89
2022-07-29T10:50:01.385Z,98346.64
2022-07-29T10:51:11.837Z,98344.18
2022-07-29T10:52:26.628Z,98340.96
2022-07-29T10:53:55.303Z,98340.29
2022-07-29T10:55:05.113Z,98336.16
2022-07-29T10:56:30.865Z,98336.84
2022-07-29T10:57:54.459Z,98337.42
2022-07-29T10:59:32.257Z,98329.84
2022-07-29T11:00:45.733Z,98328.83
2022-07-29T11:02:10.854Z,98325.77
2022-07-29T11:03:53.625Z,98327.29
2022-07-29T11:05:02.995Z,98333.08
2022-07-29T11:06:15.299Z,98337.21
2022-07-29T11:07:25.163Z,98336.14
2022-07-29T11:09:34.901Z,98332.37
2022-07-29T11:10:46.986Z,98331.38
2022-07-29T11:11:58.488Z,98326.19
2022-07-29T11:13:09.121Z,98323.36
2022-07-29T11:14:20.402Z,98323.33
2022-07-29T11:15:56.815Z,98327.95
2022-07-29T11:17:09.899Z,98330.20
2022-07-29T11:18:24.852Z,98326.79
2022-07-29T11:19:35.827Z,98322.60
2022-07-29T11:20:50.090Z,98321.15
2022-07-29T11:21:58.803Z,98323.69
2022-07-29T11:23:33.976Z,98327.10
2022-07-29T11:24:50.213Z,98332.23
2022-07-29T11:26:23.669Z,98334.84
2022-07-29T11:27:43.091Z,98331.64
2022-07-29T11:29:01.041Z,98328.41
2022-07-29T11:30:19.960Z,98326.70
2022-07-29T11:31:46.487Z,98321.52
2022-07-29T11:32:55.712Z,98317.66
2022-07-29T11:34:27.964Z,98315.83
2022-07-29T11:35:41.327Z,98313.02
2022-07-29T11:37:17.748Z,98312.15
2022-07-29T11:38:31.931Z,98308.27
2022-07-29T11:39:49.153Z,98308.01
2022-07-29T11:41:22.092Z,98312.13
2022-07-29T11:42:32.282Z,98314.33
2022-07-29T11:43:54.795Z,98315.30
2022-07-29T11:45:44.412Z,98320.38
2022-07-29T11:46:54.680Z,98317.40
2022-07-29T11:48:29.197Z,98316.19
2022-07-29T11:49:34.468Z,98313.85
2022-07-29T11:50:48.611Z,98308.23
2022-07-29T11:51:59.595Z,98306.98
2022-07-29T11:53:16.228Z,98304.98
2022-07-29T11:54:57.088Z,98307.54
2022-07-29T11:56:05.204Z,98308.71
2022-07-29T11:57:15.541Z,98313.20
2022-07-29T11:58:28.269Z,98313.15
2022-07-29T11:59:44.565Z,98310.35
2022-07-29T12:00:56.463Z,98308.77
2022-07-29T12:02:36.475Z,98308.96
2022-07-29T12:03:37.361Z,98312.05
2022-07-29T12:04:59.385Z,98313.84
2022-07-29T12:06:20.981Z,98316.44
2022-07-29T12:07:36.398Z,98318.09
2022-07-29T12:08:46.209Z,98323.41
2022-07-29T12:09:58.210Z,98324.53
2022-07-29T12:11:06.495Z,98326.16
2022-07-29T12:12:15.593Z,98325.79
2022-07-29T12:13:37.036Z,98323.00
2022-07-29T12:14:51.025Z,98326.31
2022-07-29T12:16:03.006Z,98333.79
2022-07-29T12:17:11.479Z,98334.77
2022-07-29T12:18:24.159Z,98332.75
2022-07-29T12:19:34.726Z,98328.78
2022-07-29T12:20:43.713Z,98327.45
2022-07-29T12:22:02.182Z,98327.65
2022-07-29T12:23:12.020Z,98324.91
2022-07-29T12:24:22.673Z,98325.28
2022-07-29T12:25:43.487Z,98329.98
2022-07-29T12:26:55.722Z,98335.17
2022-07-29T12:28:06.776Z,98332.55
2022-07-29T12:29:33.908Z,98330.16
2022-07-29T12:30:55.353Z,98326.35
2022-07-29T12:32:06.670Z,98325.34
2022-07-29T12:33:26.738Z,98327.59
2022-07-29T12:34:36.398Z,98335.48
2022-07-29T12:35:58.068Z,98332.34
2022-07-29T12:37:13.067Z,98326.77
2022-07-29T12:38:22.183Z,98323.66
2022-07-29T12:39:33.954Z,98322.61
2022-07-29T12:40:42.510Z,98324.82
2022-07-29T12:41:51.114Z,98326.62
2022-07-29T12:43:21.399Z,98329.95
2022-07-29T12:44:51.088Z,98330.44
2022-07-29T12:46:01.456Z,98333.73
2022-07-29T12:47:10.333Z,98336.98
2022-07-29T12:48:19.177Z,98343.30
2022-07-29T12:49:28.758Z,98342.00
2022-07-29T12:50:38.337Z,98340.98
2022-07-29T12:51:48.465Z,98338.30
2022-07-29T12:52:56.993Z,98337.84
2022-07-29T12:54:19.298Z,98344.07
2022-07-29T12:55:53.201Z,98348.28
2022-07-29T12:57:02.632Z,98350.38
2022-07-29T12:58:10.746Z,98348.89
2022-07-29T12:59:26.926Z,98352.29
2022-07-29T13:00:35.856Z,98356.31
2022-07-29T13:01:47.401Z,98365.09
2022-07-29T13:02:59.748Z,98369.11
2022-07-29T13:04:07.981Z,98367.36
2022-07-29T13:05:19.133Z,98368.37
2022-07-29T13:06:49.661Z,98370.83
2022-07-29T13:08:22.281Z,98373.13
2022-07-29T13:09:44.974Z,98375.79
2022-07-29T13:10:55.714Z,98376.41
2022-07-29T13:12:05.578Z,98375.41
2022-07-29T13:13:18.885Z,98380.14
2022-07-29T13:14:35.081Z,98381.35
2022-07-29T13:15:52.593Z,98385.91
2022-07-29T13:17:04.871Z,98386.95
2022-07-29T13:18:36.500Z,98388.16
2022-07-29T13:19:47.719Z,98392.13
2022-07-29T13:20:58.307Z,98393.64
2022-07-29T13:22:07.339Z,98395.19
2022-07-29T13:23:15.673Z,98395.64
2022-07-29T13:24:26.176Z,98397.59
2022-07-29T13:25:37.006Z,98392.77
2022-07-29T13:26:46.331Z,98390.10
2022-07-29T13:27:57.195Z,98390.24
2022-07-29T13:29:05.823Z,98388.05
2022-07-29T13:30:14.767Z,98386.04
2022-07-29T13:31:23.661Z,98390.67
2022-07-29T13:32:34.472Z,98394.41
2022-07-29T13:33:45.331Z,98394.71
2022-07-29T13:34:54.268Z,98398.02
2022-07-29T13:36:05.123Z,98400.96
2022-07-29T13:37:13.413Z,98402.70
2022-07-29T13:38:22.065Z,98406.41
2022-07-29T13:39:40.529Z,98408.27
2022-07-29T13:40:51.496Z,98414.14
2022-07-29T13:42:04.439Z,98418.33
2022-07-29T13:43:15.549Z,98419.37
2022-07-29T13:44:26.845Z,98424.28
2022-07-29T13:45:37.396Z,98425.45
2022-07-29T13:46:46.669Z,98425.39
2022-07-29T13:47:56.384Z,98429.23
2022-07-29T13:49:10.109Z,98428.46
2022-07-29T13:50:18.841Z,98431.30
2022-07-29T13:51:29.301Z,98430.50
2022-07-29T13:52:38.364Z,98430.79
2022-07-29T13:53:46.782Z,98432.18
2022-07-29T13:54:59.059Z,98433.35
2022-07-29T13:56:10.425Z,98429.77
2022-07-29T13:57:21.884Z,98431.70
2022-07-29T13:58:30.777Z,98430.39
2022-07-29T13:59:42.027Z,98430.15
2022-07-29T14:00:52.465Z,98436.19
2022-07-29T14:02:01.743Z,98435.52
2022-07-29T14:03:10.004Z,98434.80
2022-07-29T14:04:18.213Z,98437.95
2022-07-29T14:05:28.808Z,98437.14
2022-07-29T14:06:36.855Z,98441.39
2022-07-29T14:07:51.113Z,98442.92
2022-07-29T14:09:00.893Z,98449.05
2022-07-29T14:10:09.846Z,98450.00
2022-07-29T14:11:17.719Z,98450.74
2022-07-29T14:12:28.105Z,98455.82
2022-07-29T14:13:36.785Z,98454.16
2022-07-29T14:14:47.156Z,98454.86
2022-07-29T14:15:56.504Z,98460.18
2022-07-29T14:17:06.035Z,98458.67
2022-07-29T14:18:14.395Z,98461.69
2022-07-29T14:19:24.019Z,98463.38
2022-07-29T14:20:35.694Z,98464.83
2022-07-29T14:21:46.149Z,98465.18
2022-07-29T14:22:55.763Z,98462.04
2022-07-29T14:24:03.922Z,98465.59
2022-07-29T14:25:32.318Z,98470.42
2022-07-29T14:26:46.402Z,98473.89